createdAt,value
2019-03-05T07:32:44.623Z,7.81
2019-03-05T07:35:49.809Z,7.92
2019-03-05T07:38:49.048Z,7.95
2019-03-05T07:41:37.961Z,7.81
2019-03-05T07:44:18.838Z,7.88
2019-03-05T07:47:17.885Z,7.92
2019-03-05T07:53:36.130Z,7.94
2019-03-05T08:04:31.722Z,8.18
2019-03-05T08:16:33.056Z,8.49
2019-03-05T08:19:03.042Z,8.40
2019-03-05T08:21:51.240Z,8.57
2019-03-05T08:27:35.996Z,8.92
2019-03-05T08:30:27.697Z,8.99
2019-03-05T08:33:19.467Z,8.82
2019-03-05T08:35:47.834Z,8.93
2019-03-05T08:38:36.607Z,8.59
2019-03-05T08:40:55.108Z,8.54
2019-03-05T08:43:23.839Z,8.77
2019-03-05T08:49:13.108Z,9.00
2019-03-05T08:52:12.881Z,9.02
2019-03-05T08:55:32.238Z,9.26
2019-03-05T10:47:22.910Z,11.64
2019-03-05T10:50:15.226Z,11.51
2019-03-05T11:02:31.378Z,12.47
2019-03-05T11:08:52.657Z,11.98
2019-03-05T11:11:27.919Z,11.98
2019-03-05T11:14:29.784Z,12.36
2019-03-05T11:26:09.941Z,11.96
2019-03-05T11:31:07.887Z,12.01
2019-03-05T11:33:40.299Z,12.30
2019-03-05T11:41:55.007Z,14.12
2019-03-05T11:44:58.813Z,14.18
2019-03-05T11:53:23.256Z,15.40
2019-03-05T11:55:58.834Z,15.43
2019-03-05T11:58:40.364Z,15.59
2019-03-05T12:01:24.718Z,15.86
2019-03-05T12:03:58.598Z,15.30
2019-03-05T12:06:29.097Z,15.26
2019-03-05T12:09:10.807Z,14.97
2019-03-05T12:12:02.391Z,14.40
2019-03-05T12:14:28.233Z,13.49
2019-03-05T12:17:08.133Z,12.42
2019-03-05T12:19:48.420Z,12.42
2019-03-05T12:22:18.193Z,12.25
2019-03-05T12:27:50.356Z,12.68
2019-03-05T12:33:01.698Z,13.70
2019-03-05T12:48:01.305Z,14.21
2019-03-05T12:51:08.457Z,14.33
2019-03-05T12:54:01.696Z,14.29
2019-03-05T12:56:31.941Z,15.13
2019-03-05T12:59:00.400Z,15.09
2019-03-05T13:01:34.939Z,15.11
2019-03-05T13:04:13.213Z,14.79
2019-03-05T13:06:43.292Z,14.76
2019-03-05T13:09:19.574Z,15.11
2019-03-05T13:12:12.923Z,15.87
2019-03-05T13:14:42.828Z,15.40
2019-03-05T13:17:16.454Z,14.85
2019-03-05T13:19:47.996Z,14.95
2019-03-05T13:22:20.509Z,15.85
2019-03-05T13:24:50.205Z,16.32
2019-03-05T13:27:28.481Z,16.53
2019-03-05T13:29:56.957Z,15.91
2019-03-05T13:32:27.170Z,15.13
2019-03-05T13:35:02.604Z,14.78
2019-03-05T13:37:36.364Z,14.19
2019-03-05T13:40:12.618Z,13.69
2019-03-05T13:42:47.619Z,13.21
2019-03-05T13:45:19.249Z,12.88
2019-03-05T13:47:50.418Z,12.96
2019-03-05T13:54:01.428Z,12.74
2019-03-05T13:56:58.261Z,13.28
2019-03-05T13:59:48.086Z,13.28
2019-03-05T14:16:53.111Z,12.77
2019-03-05T14:22:35.585Z,12.78
2019-03-05T14:28:22.604Z,12.80
2019-03-05T14:31:24.260Z,13.19
2019-03-05T14:34:03.258Z,13.34
2019-03-05T14:37:08.466Z,13.01
2019-03-05T14:39:41.346Z,13.12
2019-03-05T14:42:12.257Z,13.33
2019-03-05T14:44:50.354Z,13.72
2019-03-05T14:47:18.868Z,14.25
2019-03-05T14:49:51.551Z,14.19
2019-03-05T14:52:26.056Z,13.77
2019-03-05T14:54:56.434Z,13.56
2019-03-05T14:58:08.586Z,13.60
2019-03-05T15:00:37.625Z,13.17
2019-03-05T15:03:39.875Z,13.37
2019-03-05T15:06:21.009Z,13.44
2019-03-05T15:08:54.157Z,13.83
2019-03-05T15:11:22.893Z,13.85
2019-03-05T15:13:51.365Z,14.02
2019-03-05T15:16:20.125Z,13.90
2019-03-05T15:18:48.995Z,13.88
2019-03-05T15:21:17.765Z,13.75
2019-03-05T15:23:46.390Z,13.53
2019-03-05T15:26:15.253Z,13.45
2019-03-05T15:28:56.454Z,13.37
2019-03-05T15:31:30.336Z,13.16
2019-03-05T15:34:10.923Z,13.14
2019-03-05T15:36:40.587Z,13.44
2019-03-05T15:39:11.806Z,13.45
2019-03-05T15:41:45.969Z,13.47
2019-03-05T15:44:25.432Z,13.53
2019-03-05T15:46:52.979Z,13.53
2019-03-05T15:49:31.904Z,13.47
2019-03-05T15:52:01.713Z,13.37
2019-03-05T15:59:57.883Z,13.32
2019-03-05T16:02:59.330Z,13.26
2019-03-05T16:05:48.997Z,13.21
2019-03-05T16:08:50.298Z,13.27
2019-03-05T16:14:29.592Z,13.60
2019-03-05T16:20:06.295Z,13.54
2019-03-05T16:22:55.165Z,13.50
2019-03-05T16:25:41.280Z,13.32
2019-03-05T16:32:02.275Z,13.17
2019-03-05T16:34:28.424Z,13.28
2019-03-05T16:40:56.027Z,13.15
2019-03-05T16:50:19.315Z,13.04
2019-03-05T16:52:58.170Z,13.10
2019-03-05T16:55:58.251Z,13.06
2019-03-05T16:58:52.167Z,13.04
2019-03-05T17:02:12.904Z,13.01
2019-03-05T17:05:09.070Z,12.99
2019-03-05T17:08:15.326Z,12.91
2019-03-05T17:11:02.604Z,12.86
2019-03-05T17:14:01.969Z,12.85
2019-03-05T17:16:29.549Z,12.90
2019-03-05T17:19:10.220Z,12.67
2019-03-05T17:21:38.764Z,12.67
2019-03-05T17:30:21.306Z,12.57
2019-03-05T17:36:06.660Z,12.37
2019-03-05T17:44:26.100Z,12.25
2019-03-05T17:47:51.905Z,12.23
2019-03-05T17:50:06.574Z,12.25
2019-03-05T17:56:05.455Z,12.15
2019-03-05T18:04:38.366Z,12.04
2019-03-05T18:07:29.794Z,11.88
2019-03-05T18:19:42.411Z,12.08
2019-03-05T18:22:11.201Z,12.15
2019-03-05T18:24:40.123Z,12.06
2019-03-05T19:12:07.537Z,11.38
2019-03-05T19:14:46.277Z,11.31
2019-03-05T19:17:35.485Z,11.29
2019-03-05T19:29:23.224Z,11.22
2019-03-05T19:35:11.179Z,11.07
2019-03-05T19:41:19.226Z,10.89
2019-03-05T19:47:07.248Z,10.88
2019-03-05T19:53:19.561Z,10.99
2019-03-05T19:59:01.500Z,11.17
2019-03-05T20:04:57.002Z,11.10
2019-03-05T20:10:35.655Z,11.12
2019-03-05T20:13:34.136Z,10.90
2019-03-05T20:19:01.102Z,10.99
2019-03-05T20:24:52.288Z,10.85
2019-03-05T20:34:31.035Z,10.60
2019-03-05T20:40:15.623Z,10.59
2019-03-05T20:52:11.556Z,10.50
2019-03-05T20:54:58.936Z,10.65
2019-03-05T20:57:51.834Z,10.49
2019-03-05T21:00:45.816Z,10.47
2019-03-05T21:06:35.774Z,10.27
2019-03-05T21:09:07.045Z,10.06
2019-03-05T21:11:36.569Z,10.07
2019-03-05T21:14:09.509Z,10.23
2019-03-05T21:16:41.384Z,10.19
2019-03-05T21:19:10.972Z,10.30
2019-03-05T21:21:39.947Z,10.33
2019-03-05T21:24:15.850Z,10.39
2019-03-05T21:26:43.590Z,10.39
2019-03-05T21:29:12.968Z,10.34
2019-03-05T21:31:41.911Z,10.12
2019-03-05T21:34:22.592Z,9.91
2019-03-05T21:36:53.311Z,9.94
2019-03-05T21:39:24.217Z,9.93
2019-03-05T21:41:53.996Z,9.63
2019-03-05T21:44:45.963Z,9.58
2019-03-05T21:47:22.346Z,9.54
2019-03-05T21:53:16.677Z,9.85
2019-03-05T21:55:50.441Z,10.10
2019-03-05T21:58:27.312Z,10.02
2019-03-05T22:00:56.125Z,10.25
2019-03-05T22:03:24.522Z,10.22
2019-03-05T22:05:56.851Z,10.20
2019-03-05T22:08:34.753Z,10.15
2019-03-05T22:11:05.723Z,10.08
2019-03-05T22:13:34.193Z,9.77
2019-03-05T22:16:03.749Z,9.99
2019-03-05T22:18:35.244Z,10.06
2019-03-05T22:21:07.207Z,10.08
2019-03-05T22:23:35.819Z,10.01
2019-03-05T22:26:14.614Z,10.04
2019-03-05T22:28:43.311Z,10.01
2019-03-05T22:31:11.841Z,10.06
2019-03-05T22:33:44.321Z,9.95
2019-03-05T22:36:16.144Z,10.06
2019-03-05T22:38:47.312Z,10.04
2019-03-05T22:41:15.746Z,10.00
2019-03-05T22:43:44.471Z,10.01
2019-03-05T22:46:12.751Z,10.01
2019-03-05T22:48:41.210Z,10.09
2019-03-05T22:51:11.142Z,10.01
2019-03-05T22:53:39.644Z,9.95
2019-03-05T22:56:18.591Z,9.92
2019-03-05T22:58:49.523Z,10.03
2019-03-05T23:01:27.810Z,10.02
2019-03-05T23:03:59.264Z,10.02
2019-03-05T23:06:37.121Z,10.10
2019-03-05T23:09:08.321Z,10.07
2019-03-05T23:11:39.054Z,10.03
2019-03-05T23:14:07.849Z,8.74
2019-03-05T23:16:37.379Z,10.15
2019-03-05T23:19:05.939Z,10.11
2019-03-05T23:21:34.748Z,10.03
2019-03-05T23:24:03.139Z,10.07
2019-03-05T23:26:31.850Z,10.07
2019-03-05T23:29:00.524Z,10.07
2019-03-05T23:31:28.900Z,10.03
2019-03-05T23:34:00.381Z,10.13
2019-03-05T23:36:29.112Z,10.06
2019-03-05T23:38:57.624Z,10.12
2019-03-05T23:41:35.160Z,10.08
2019-03-05T23:44:06.544Z,10.03
2019-03-05T23:46:35.018Z,9.99
2019-03-05T23:49:04.926Z,10.01
2019-03-05T23:51:37.099Z,10.12
2019-03-05T23:54:05.594Z,10.15
2019-03-05T23:56:34.042Z,10.19
2019-03-05T23:59:02.774Z,10.32
